createdAt,value
2022-08-22T00:02:58.382Z,96.20
2022-08-22T00:02:58.997Z,92.90
2022-08-22T00:04:17.157Z,93.50
2022-08-22T00:09:29.218Z,94.10
2022-08-22T00:14:38.823Z,96.50
2022-08-22T00:19:49.110Z,96.80
2022-08-22T00:25:02.901Z,96.70
2022-08-22T00:30:09.737Z,97.70
2022-08-22T00:35:19.621Z,98.00
2022-08-22T00:40:35.676Z,97.70
2022-08-22T00:46:02.482Z,97.30
2022-08-22T00:51:23.789Z,98.20
2022-08-22T00:56:46.470Z,99.80
2022-08-22T01:01:57.037Z,99.90
2022-08-22T01:07:10.931Z,99.90
2022-08-22T01:12:43.179Z,99.90
2022-08-22T01:18:16.711Z,99.90
2022-08-22T01:23:48.428Z,99.90
2022-08-22T01:29:28.552Z,99.90
2022-08-22T01:35:12.935Z,99.90
2022-08-22T01:40:53.717Z,99.90
2022-08-22T01:46:26.277Z,99.90
2022-08-22T01:51:39.521Z,99.90
2022-08-22T01:56:45.226Z,99.90
2022-08-22T02:01:57.953Z,99.90
2022-08-22T02:07:06.760Z,99.90
2022-08-22T02:12:29.570Z,99.90
2022-08-22T02:17:33.554Z,99.90
2022-08-22T02:22:44.676Z,99.90
2022-08-22T02:27:58.470Z,99.90
2022-08-22T02:33:07.176Z,99.90
2022-08-22T02:38:25.084Z,99.90
2022-08-22T02:43:35.984Z,99.90
2022-08-22T02:48:44.287Z,99.90
2022-08-22T02:53:53.089Z,99.90
2022-08-22T02:59:00.071Z,99.90
2022-08-22T03:04:22.446Z,99.90
2022-08-22T03:09:30.404Z,99.90
2022-08-22T03:14:38.884Z,99.90
2022-08-22T03:19:56.206Z,99.90
2022-08-22T03:25:10.248Z,99.90
2022-08-22T03:30:18.541Z,99.90
2022-08-22T03:35:33.878Z,99.90
2022-08-22T03:40:52.157Z,99.90
2022-08-22T03:46:36.022Z,99.90
2022-08-22T03:51:55.014Z,99.90
2022-08-22T03:57:40.579Z,99.90
2022-08-22T04:03:25.104Z,99.90
2022-08-22T04:09:06.652Z,99.90
2022-08-22T04:14:45.906Z,99.90
2022-08-22T04:20:05.575Z,99.90
2022-08-22T04:25:14.507Z,99.90
2022-08-22T04:30:24.086Z,99.90
2022-08-22T04:35:31.098Z,99.90
2022-08-22T04:40:38.413Z,99.90
2022-08-22T04:45:47.761Z,99.90
2022-08-22T04:50:54.925Z,99.90
2022-08-22T04:56:07.695Z,99.90
2022-08-22T05:01:15.323Z,99.90
2022-08-22T05:06:19.782Z,99.90
2022-08-22T05:11:24.296Z,99.90
2022-08-22T05:16:31.942Z,99.90
2022-08-22T05:21:37.316Z,99.90
2022-08-22T05:26:42.761Z,99.90
2022-08-22T05:31:49.053Z,99.90
2022-08-22T05:36:56.532Z,99.90
2022-08-22T05:42:02.188Z,99.90
2022-08-22T05:47:16.757Z,99.90
2022-08-22T05:52:32.424Z,99.90
2022-08-22T05:57:39.178Z,99.90
2022-08-22T06:02:55.465Z,99.90
2022-08-22T06:08:02.674Z,99.90
2022-08-22T06:13:11.602Z,99.90
2022-08-22T06:18:20.352Z,99.90
2022-08-22T06:23:27.142Z,99.90
2022-08-22T06:28:34.647Z,99.90
2022-08-22T06:33:45.448Z,99.00
2022-08-22T06:38:55.743Z,99.10
2022-08-22T06:43:59.221Z,98.40
2022-08-22T06:49:04.393Z,98.10
2022-08-22T06:54:14.583Z,97.80
2022-08-22T06:59:18.778Z,96.70
2022-08-22T07:04:26.075Z,96.30
2022-08-22T07:09:31.593Z,96.90
2022-08-22T07:14:40.083Z,96.20
2022-08-22T07:19:54.042Z,95.60
2022-08-22T07:24:59.531Z,95.50
2022-08-22T07:30:06.841Z,95.20
2022-08-22T07:35:18.045Z,95.00
2022-08-22T07:40:26.681Z,95.10
2022-08-22T07:45:35.032Z,95.40
2022-08-22T07:50:58.087Z,95.70
2022-08-22T07:56:01.659Z,93.70
2022-08-22T08:01:03.720Z,92.80
2022-08-22T08:06:08.353Z,92.90
2022-08-22T08:11:13.478Z,91.70
2022-08-22T08:16:17.825Z,91.90
2022-08-22T08:21:30.607Z,91.30
2022-08-22T08:26:35.445Z,90.80
2022-08-22T08:31:45.047Z,88.50
2022-08-22T08:36:51.173Z,85.90
2022-08-22T08:42:34.374Z,84.50
2022-08-22T08:47:56.618Z,87.10
2022-08-22T08:53:26.815Z,81.30
2022-08-22T08:58:45.989Z,77.20
2022-08-22T09:04:19.684Z,74.50
2022-08-22T09:09:42.709Z,70.70
2022-08-22T09:15:11.905Z,70.60
2022-08-22T09:20:35.165Z,69.70
2022-08-22T09:25:42.737Z,67.10
2022-08-22T09:31:02.581Z,67.90
2022-08-22T09:36:23.450Z,66.60
2022-08-22T09:41:40.068Z,64.20
2022-08-22T09:46:56.370Z,62.60
2022-08-22T09:52:14.458Z,63.30
2022-08-22T09:57:33.718Z,59.60
2022-08-22T10:02:43.531Z,57.60
2022-08-22T10:08:02.477Z,58.70
2022-08-22T10:13:21.592Z,55.30
2022-08-22T10:18:33.758Z,55.20
2022-08-22T10:23:41.682Z,53.40
2022-08-22T10:28:53.814Z,52.80
2022-08-22T10:34:04.283Z,51.70
2022-08-22T10:39:11.776Z,50.60
2022-08-22T10:44:20.706Z,48.80
2022-08-22T10:49:28.836Z,50.20
2022-08-22T12:06:13.427Z,48.30
2022-08-22T12:11:25.304Z,46.00
2022-08-22T12:16:38.996Z,43.90
2022-08-22T12:22:07.003Z,43.00
2022-08-22T12:27:39.646Z,43.30
2022-08-22T12:33:37.258Z,42.00
2022-08-22T12:38:50.434Z,41.90
2022-08-22T12:44:03.879Z,41.00
2022-08-22T12:49:17.298Z,41.30
2022-08-22T12:54:39.529Z,42.20
2022-08-22T12:59:46.733Z,43.10
2022-08-22T13:04:54.930Z,44.40
2022-08-22T13:10:01.606Z,43.60
2022-08-22T13:15:27.169Z,42.70
2022-08-22T13:20:34.344Z,41.80
2022-08-22T13:25:59.080Z,40.80
2022-08-22T13:31:03.272Z,42.10
2022-08-22T13:36:10.928Z,41.20
2022-08-22T13:41:18.694Z,40.70
2022-08-22T13:46:28.410Z,43.60
2022-08-22T13:51:39.938Z,39.60
2022-08-22T13:56:51.192Z,39.90
2022-08-22T14:01:59.034Z,40.20
2022-08-22T14:07:23.912Z,40.40
2022-08-22T14:12:30.234Z,40.40
2022-08-22T14:17:42.961Z,42.10
2022-08-22T14:34:21.978Z,42.90
2022-08-22T14:39:30.256Z,40.70
2022-08-22T14:44:40.166Z,41.60
2022-08-22T14:49:55.449Z,40.20
2022-08-22T14:55:21.488Z,39.20
2022-08-22T15:00:34.944Z,39.90
2022-08-22T15:05:51.318Z,38.80
2022-08-22T15:11:19.342Z,40.90
2022-08-22T15:16:23.323Z,40.20
2022-08-22T15:21:28.526Z,39.80
2022-08-22T15:26:33.877Z,41.00
2022-08-22T15:31:39.747Z,42.90
2022-08-22T15:37:08.493Z,42.50
2022-08-22T15:42:23.733Z,43.30
2022-08-22T15:47:36.144Z,43.40
2022-08-22T15:53:10.121Z,43.40
2022-08-22T15:58:21.778Z,43.40
2022-08-22T16:03:26.863Z,44.00
2022-08-22T16:08:47.588Z,42.70
2022-08-22T16:14:21.671Z,42.10
2022-08-22T16:19:24.977Z,42.00
2022-08-22T16:25:10.544Z,42.20
2022-08-22T16:30:15.108Z,43.20
2022-08-22T16:35:50.431Z,44.20
2022-08-22T16:40:53.869Z,43.00
2022-08-22T16:45:55.927Z,45.50
2022-08-22T16:51:11.959Z,44.10
2022-08-22T16:56:26.649Z,44.20
2022-08-22T17:01:41.232Z,43.70
2022-08-22T17:07:11.980Z,43.70
2022-08-22T17:12:30.630Z,45.40
2022-08-22T17:17:40.014Z,46.30
2022-08-22T17:22:51.107Z,45.60
2022-08-22T17:28:06.097Z,45.50
2022-08-22T17:33:15.475Z,46.40
2022-08-22T17:38:31.484Z,45.70
2022-08-22T17:43:55.726Z,48.10
2022-08-22T17:49:08.825Z,47.50
2022-08-22T17:54:21.963Z,46.50
2022-08-22T17:59:30.727Z,48.00
2022-08-22T18:04:47.514Z,48.90
2022-08-22T18:09:55.240Z,49.00
2022-08-22T18:15:03.372Z,50.30
2022-08-22T18:20:10.142Z,51.40
2022-08-22T18:25:32.648Z,52.50
2022-08-22T18:30:54.393Z,52.50
2022-08-22T18:36:04.935Z,54.30
2022-08-22T18:41:11.888Z,55.70
2022-08-22T18:46:39.899Z,55.70
2022-08-22T18:51:41.795Z,57.40
2022-08-22T18:56:49.209Z,58.30
2022-08-22T19:02:06.453Z,58.50
2022-08-22T19:07:46.861Z,59.60
2022-08-22T19:13:04.061Z,61.30
2022-08-22T19:18:33.882Z,63.00
2022-08-22T19:23:45.073Z,62.90
2022-08-22T19:28:47.450Z,62.70
2022-08-22T19:34:35.390Z,62.50
2022-08-22T19:39:54.464Z,63.00
2022-08-22T19:45:19.672Z,62.60
2022-08-22T19:50:30.947Z,63.40
2022-08-22T19:55:50.168Z,65.10
2022-08-22T20:00:55.993Z,65.50
2022-08-22T20:06:22.066Z,64.10
2022-08-22T20:11:43.453Z,65.00
2022-08-22T20:22:45.325Z,66.60
2022-08-22T20:27:48.883Z,66.80
2022-08-22T20:32:53.901Z,67.40
2022-08-22T20:38:15.722Z,67.30
2022-08-22T20:43:28.205Z,67.60
2022-08-22T20:48:39.246Z,67.20
2022-08-22T20:53:49.930Z,68.30
2022-08-22T20:58:51.858Z,68.50
2022-08-22T21:03:54.273Z,68.80
2022-08-22T21:09:12.675Z,69.10
2022-08-22T21:14:19.274Z,68.80
2022-08-22T21:19:26.934Z,69.30
2022-08-22T21:24:30.511Z,69.70
2022-08-22T21:29:34.999Z,70.00
2022-08-22T21:34:41.896Z,69.80
2022-08-22T21:39:47.792Z,69.50
2022-08-22T21:44:56.286Z,70.00
2022-08-22T21:50:26.865Z,70.00
2022-08-22T21:55:34.891Z,69.80
2022-08-22T22:00:48.839Z,69.90
2022-08-22T22:05:52.962Z,70.30
2022-08-22T22:10:59.396Z,69.10
2022-08-22T22:16:01.230Z,68.80
2022-08-22T22:21:03.501Z,68.80
2022-08-22T22:26:06.912Z,66.80
2022-08-22T22:31:09.283Z,66.50
2022-08-22T22:36:16.074Z,65.70
2022-08-22T22:41:20.331Z,65.90
2022-08-22T22:46:23.706Z,65.00
2022-08-22T22:51:26.063Z,65.10
2022-08-22T22:56:29.490Z,66.20
2022-08-22T23:01:31.512Z,66.80
2022-08-22T23:06:34.362Z,67.70
2022-08-22T23:11:37.548Z,68.80
2022-08-22T23:16:40.666Z,70.40
2022-08-22T23:21:43.856Z,70.00
2022-08-22T23:26:47.185Z,71.00
2022-08-22T23:31:50.974Z,72.50
2022-08-22T23:36:54.790Z,73.50
2022-08-22T23:41:59.077Z,73.50
2022-08-22T23:47:01.705Z,73.00
2022-08-22T23:52:04.356Z,72.80
2022-08-22T23:57:11.910Z,72.50
